sensor_id;sensor_type;location;lat;lon;timestamp;temperature;humidity
33699;DHT22;20032;52.436;13.312;2023-02-28T00:00:44;3.00;99.90
33699;DHT22;20032;52.436;13.312;2023-02-28T00:03:10;2.90;99.90
33699;DHT22;20032;52.436;13.312;2023-02-28T00:05:35;2.90;99.90
33699;DHT22;20032;52.436;13.312;2023-02-28T00:08:01;2.90;99.90
33699;DHT22;20032;52.436;13.312;2023-02-28T00:10:28;2.90;99.90
33699;DHT22;20032;52.436;13.312;2023-02-28T00:13:00;2.90;99.90
33699;DHT22;20032;52.436;13.312;2023-02-28T00:15:26;3.00;99.90
33699;DHT22;20032;52.436;13.312;2023-02-28T00:17:52;2.90;99.90
33699;DHT22;20032;52.436;13.312;2023-02-28T00:20:18;2.90;99.90
33699;DHT22;20032;52.436;13.312;2023-02-28T00:22:47;3.00;99.90
33699;DHT22;20032;52.436;13.312;2023-02-28T00:25:15;3.00;99.90
33699;DHT22;20032;52.436;13.312;2023-02-28T00:27:42;3.00;99.90
33699;DHT22;20032;52.436;13.312;2023-02-28T00:30:14;3.00;99.90
33699;DHT22;20032;52.436;13.312;2023-02-28T00:32:40;2.90;99.90
33699;DHT22;20032;52.436;13.312;2023-02-28T00:35:06;2.90;99.90
33699;DHT22;20032;52.436;13.312;2023-02-28T00:37:35;2.90;99.90
33699;DHT22;20032;52.436;13.312;2023-02-28T00:40:01;2.90;99.90
33699;DHT22;20032;52.436;13.312;2023-02-28T00:42:30;2.80;99.90
33699;DHT22;20032;52.436;13.312;2023-02-28T00:44:55;2.80;99.90
33699;DHT22;20032;52.436;13.312;2023-02-28T00:47:21;2.80;99.90
33699;DHT22;20032;52.436;13.312;2023-02-28T00:49:48;2.80;99.90
33699;DHT22;20032;52.436;13.312;2023-02-28T00:52:14;2.70;99.90
33699;DHT22;20032;52.436;13.312;2023-02-28T00:54:39;2.70;99.90
33699;DHT22;20032;52.436;13.312;2023-02-28T00:57:05;2.70;99.90
33699;DHT22;20032;52.436;13.312;2023-02-28T00:59:30;2.70;99.90
33699;DHT22;20032;52.436;13.312;2023-02-28T01:01:56;2.70;99.90
33699;DHT22;20032;52.436;13.312;2023-02-28T01:04:22;2.80;99.90
33699;DHT22;20032;52.436;13.312;2023-02-28T01:06:47;2.80;99.90
33699;DHT22;20032;52.436;13.312;2023-02-28T01:09:13;2.80;99.90
33699;DHT22;20032;52.436;13.312;2023-02-28T01:11:39;2.70;99.90
33699;DHT22;20032;52.436;13.312;2023-02-28T01:14:06;2.70;99.90
33699;DHT22;20032;52.436;13.312;2023-02-28T01:16:32;2.70;99.90
33699;DHT22;20032;52.436;13.312;2023-02-28T01:18:58;2.70;99.90
33699;DHT22;20032;52.436;13.312;2023-02-28T01:21:23;2.60;99.90
33699;DHT22;20032;52.436;13.312;2023-02-28T01:23:49;2.70;99.90
33699;DHT22;20032;52.436;13.312;2023-02-28T01:26:18;2.70;99.90
33699;DHT22;20032;52.436;13.312;2023-02-28T01:28:44;2.70;99.90
33699;DHT22;20032;52.436;13.312;2023-02-28T01:31:10;2.60;99.90
33699;DHT22;20032;52.436;13.312;2023-02-28T01:33:37;2.60;99.90
33699;DHT22;20032;52.436;13.312;2023-02-28T01:36:09;2.50;99.90
33699;DHT22;20032;52.436;13.312;2023-02-28T01:38:36;2.50;99.90
33699;DHT22;20032;52.436;13.312;2023-02-28T01:41:02;2.50;99.90
33699;DHT22;20032;52.436;13.312;2023-02-28T01:43:31;2.50;99.90
33699;DHT22;20032;52.436;13.312;2023-02-28T01:45:59;2.50;99.90
33699;DHT22;20032;52.436;13.312;2023-02-28T01:48:29;2.40;99.90
33699;DHT22;20032;52.436;13.312;2023-02-28T01:51:02;2.30;99.90
33699;DHT22;20032;52.436;13.312;2023-02-28T01:53:33;2.30;99.90
33699;DHT22;20032;52.436;13.312;2023-02-28T01:56:00;2.40;99.90
33699;DHT22;20032;52.436;13.312;2023-02-28T01:58:29;2.40;99.90
33699;DHT22;20032;52.436;13.312;2023-02-28T02:00:54;2.30;99.90
33699;DHT22;20032;52.436;13.312;2023-02-28T02:03:20;2.20;99.90
33699;DHT22;20032;52.436;13.312;2023-02-28T02:05:46;2.10;99.90
33699;DHT22;20032;52.436;13.312;2023-02-28T02:08:17;2.10;99.90
33699;DHT22;20032;52.436;13.312;2023-02-28T02:10:45;2.00;99.90
33699;DHT22;20032;52.436;13.312;2023-02-28T02:13:32;2.00;99.90
33699;DHT22;20032;52.436;13.312;2023-02-28T02:18:53;2.00;99.90
33699;DHT22;20032;52.436;13.312;2023-02-28T02:25:25;2.00;99.90
33699;DHT22;20032;52.436;13.312;2023-02-28T02:30:08;1.80;99.90
33699;DHT22;20032;52.436;13.312;2023-02-28T02:32:55;1.60;99.90
33699;DHT22;20032;52.436;13.312;2023-02-28T02:35:52;1.50;99.90
33699;DHT22;20032;52.436;13.312;2023-02-28T02:38:42;1.60;99.90
33699;DHT22;20032;52.436;13.312;2023-02-28T02:41:34;1.60;99.90
33699;DHT22;20032;52.436;13.312;2023-02-28T02:44:24;1.50;99.90
33699;DHT22;20032;52.436;13.312;2023-02-28T02:46:55;1.50;99.90
33699;DHT22;20032;52.436;13.312;2023-02-28T02:49:28;1.40;99.90
33699;DHT22;20032;52.436;13.312;2023-02-28T02:51:56;1.30;99.90
33699;DHT22;20032;52.436;13.312;2023-02-28T02:54:27;1.10;99.90
33699;DHT22;20032;52.436;13.312;2023-02-28T02:56:57;1.20;99.90
33699;DHT22;20032;52.436;13.312;2023-02-28T02:59:25;1.20;99.90
33699;DHT22;20032;52.436;13.312;2023-02-28T03:01:55;1.20;99.90
33699;DHT22;20032;52.436;13.312;2023-02-28T03:04:23;1.20;99.90
33699;DHT22;20032;52.436;13.312;2023-02-28T03:06:51;1.10;99.90
33699;DHT22;20032;52.436;13.312;2023-02-28T03:09:20;0.90;99.90
33699;DHT22;20032;52.436;13.312;2023-02-28T03:11:46;0.80;99.90
33699;DHT22;20032;52.436;13.312;2023-02-28T03:14:40;0.70;99.90
33699;DHT22;20032;52.436;13.312;2023-02-28T03:17:20;0.80;99.90
33699;DHT22;20032;52.436;13.312;2023-02-28T03:20:01;0.90;99.90
33699;DHT22;20032;52.436;13.312;2023-02-28T03:22:40;0.80;99.90
33699;DHT22;20032;52.436;13.312;2023-02-28T03:25:20;0.90;99.90
33699;DHT22;20032;52.436;13.312;2023-02-28T03:30:49;0.80;99.90
33699;DHT22;20032;52.436;13.312;2023-02-28T03:33:23;0.70;99.90
33699;DHT22;20032;52.436;13.312;2023-02-28T03:35:52;0.80;99.90
33699;DHT22;20032;52.436;13.312;2023-02-28T03:38:27;0.70;99.90
33699;DHT22;20032;52.436;13.312;2023-02-28T03:41:01;0.70;99.90
33699;DHT22;20032;52.436;13.312;2023-02-28T03:43:31;0.80;99.90
33699;DHT22;20032;52.436;13.312;2023-02-28T03:46:02;0.80;99.90
33699;DHT22;20032;52.436;13.312;2023-02-28T03:48:36;0.80;99.90
33699;DHT22;20032;52.436;13.312;2023-02-28T03:51:06;0.80;99.90
33699;DHT22;20032;52.436;13.312;2023-02-28T03:53:38;0.80;99.90
33699;DHT22;20032;52.436;13.312;2023-02-28T03:56:16;0.60;99.90
33699;DHT22;20032;52.436;13.312;2023-02-28T03:59:49;0.60;99.90
33699;DHT22;20032;52.436;13.312;2023-02-28T04:01:38;0.70;99.90
33699;DHT22;20032;52.436;13.312;2023-02-28T04:04:06;0.70;99.90
33699;DHT22;20032;52.436;13.312;2023-02-28T04:06:33;0.50;99.90
33699;DHT22;20032;52.436;13.312;2023-02-28T04:08:59;0.40;99.90
33699;DHT22;20032;52.436;13.312;2023-02-28T04:11:35;0.30;99.90
33699;DHT22;20032;52.436;13.312;2023-02-28T04:14:03;0.30;99.90
33699;DHT22;20032;52.436;13.312;2023-02-28T04:16:29;0.30;99.90
33699;DHT22;20032;52.436;13.312;2023-02-28T04:18:55;0.20;99.90
33699;DHT22;20032;52.436;13.312;2023-02-28T04:21:28;0.20;99.90
33699;DHT22;20032;52.436;13.312;2023-02-28T04:23:55;0.10;99.90
33699;DHT22;20032;52.436;13.312;2023-02-28T04:26:21;0.10;99.90
33699;DHT22;20032;52.436;13.312;2023-02-28T04:28:46;0.10;99.90
33699;DHT22;20032;52.436;13.312;2023-02-28T04:31:12;0.10;99.90
33699;DHT22;20032;52.436;13.312;2023-02-28T04:33:37;0.20;99.90
33699;DHT22;20032;52.436;13.312;2023-02-28T04:36:05;0.10;99.90
33699;DHT22;20032;52.436;13.312;2023-02-28T04:38:36;0.10;99.90
33699;DHT22;20032;52.436;13.312;2023-02-28T04:41:02;0.00;99.90
33699;DHT22;20032;52.436;13.312;2023-02-28T04:43:28;0.10;99.90
33699;DHT22;20032;52.436;13.312;2023-02-28T04:45:56;0.10;99.90
33699;DHT22;20032;52.436;13.312;2023-02-28T04:48:23;0.30;99.90
33699;DHT22;20032;52.436;13.312;2023-02-28T04:50:50;0.20;99.90
33699;DHT22;20032;52.436;13.312;2023-02-28T04:53:15;0.20;99.90
33699;DHT22;20032;52.436;13.312;2023-02-28T04:55:41;0.10;99.90
33699;DHT22;20032;52.436;13.312;2023-02-28T04:58:06;0.10;99.90
33699;DHT22;20032;52.436;13.312;2023-02-28T05:00:32;0.10;99.90
33699;DHT22;20032;52.436;13.312;2023-02-28T05:02:57;0.10;99.90
33699;DHT22;20032;52.436;13.312;2023-02-28T05:05:23;0.00;99.90
33699;DHT22;20032;52.436;13.312;2023-02-28T05:07:48;0.00;99.90
33699;DHT22;20032;52.436;13.312;2023-02-28T05:10:14;-0.20;99.90
33699;DHT22;20032;52.436;13.312;2023-02-28T05:12:39;-0.10;99.90
33699;DHT22;20032;52.436;13.312;2023-02-28T05:15:05;-0.10;99.90
33699;DHT22;20032;52.436;13.312;2023-02-28T05:17:31;0.00;99.90
33699;DHT22;20032;52.436;13.312;2023-02-28T05:19:56;0.00;99.90
33699;DHT22;20032;52.436;13.312;2023-02-28T05:22:22;0.00;99.90
33699;DHT22;20032;52.436;13.312;2023-02-28T05:24:50;0.00;99.90
33699;DHT22;20032;52.436;13.312;2023-02-28T05:27:16;-0.10;99.90
33699;DHT22;20032;52.436;13.312;2023-02-28T05:29:41;-0.10;99.90
33699;DHT22;20032;52.436;13.312;2023-02-28T05:32:10;-0.10;99.90
33699;DHT22;20032;52.436;13.312;2023-02-28T05:34:38;-0.10;99.90
33699;DHT22;20032;52.436;13.312;2023-02-28T05:37:08;0.00;99.90
33699;DHT22;20032;52.436;13.312;2023-02-28T05:39:37;-0.20;99.90
33699;DHT22;20032;52.436;13.312;2023-02-28T05:42:02;-0.20;99.90
33699;DHT22;20032;52.436;13.312;2023-02-28T05:44:28;-0.30;99.90
33699;DHT22;20032;52.436;13.312;2023-02-28T05:46:53;-0.20;99.90
33699;DHT22;20032;52.436;13.312;2023-02-28T05:49:19;-0.20;99.90
33699;DHT22;20032;52.436;13.312;2023-02-28T05:51:44;-0.10;99.90
33699;DHT22;20032;52.436;13.312;2023-02-28T05:54:10;-0.20;99.90
33699;DHT22;20032;52.436;13.312;2023-02-28T05:56:35;-0.30;99.90
33699;DHT22;20032;52.436;13.312;2023-02-28T05:59:02;-0.30;99.90
33699;DHT22;20032;52.436;13.312;2023-02-28T06:01:40;-0.30;99.90
33699;DHT22;20032;52.436;13.312;2023-02-28T06:04:08;-0.40;99.90
33699;DHT22;20032;52.436;13.312;2023-02-28T06:06:34;-0.40;99.90
33699;DHT22;20032;52.436;13.312;2023-02-28T06:09:01;-0.40;99.90
33699;DHT22;20032;52.436;13.312;2023-02-28T06:11:27;-0.40;99.90
33699;DHT22;20032;52.436;13.312;2023-02-28T06:13:55;-0.40;99.90
33699;DHT22;20032;52.436;13.312;2023-02-28T06:16:21;-0.40;99.90
33699;DHT22;20032;52.436;13.312;2023-02-28T06:18:47;-0.20;99.90
33699;DHT22;20032;52.436;13.312;2023-02-28T06:21:13;-0.10;99.90
33699;DHT22;20032;52.436;13.312;2023-02-28T06:23:38;-0.10;99.90
33699;DHT22;20032;52.436;13.312;2023-02-28T06:26:04;0.00;99.90
33699;DHT22;20032;52.436;13.312;2023-02-28T06:28:30;-0.10;99.90
33699;DHT22;20032;52.436;13.312;2023-02-28T06:30:56;-0.10;99.90
33699;DHT22;20032;52.436;13.312;2023-02-28T06:33:23;-0.10;99.90
33699;DHT22;20032;52.436;13.312;2023-02-28T06:35:52;-0.10;99.90
33699;DHT22;20032;52.436;13.312;2023-02-28T06:38:18;-0.10;99.90
33699;DHT22;20032;52.436;13.312;2023-02-28T06:40:44;0.00;99.90
33699;DHT22;20032;52.436;13.312;2023-02-28T06:43:10;0.00;99.90
33699;DHT22;20032;52.436;13.312;2023-02-28T06:45:42;0.10;99.90
33699;DHT22;20032;52.436;13.312;2023-02-28T06:48:08;0.20;99.90
33699;DHT22;20032;52.436;13.312;2023-02-28T06:50:34;0.30;99.90
33699;DHT22;20032;52.436;13.312;2023-02-28T06:52:59;0.40;99.90
33699;DHT22;20032;52.436;13.312;2023-02-28T06:55:25;0.40;99.90
33699;DHT22;20032;52.436;13.312;2023-02-28T06:57:50;0.60;99.90
33699;DHT22;20032;52.436;13.312;2023-02-28T07:00:16;0.70;99.90
33699;DHT22;20032;52.436;13.312;2023-02-28T07:02:42;0.80;99.90
33699;DHT22;20032;52.436;13.312;2023-02-28T07:05:07;0.80;99.90
33699;DHT22;20032;52.436;13.312;2023-02-28T07:07:33;0.90;99.90
33699;DHT22;20032;52.436;13.312;2023-02-28T07:10:01;1.00;99.90
33699;DHT22;20032;52.436;13.312;2023-02-28T07:12:27;1.10;99.90
33699;DHT22;20032;52.436;13.312;2023-02-28T07:14:52;1.10;99.90
33699;DHT22;20032;52.436;13.312;2023-02-28T07:17:18;1.20;99.90
33699;DHT22;20032;52.436;13.312;2023-02-28T07:19:43;1.30;99.90
33699;DHT22;20032;52.436;13.312;2023-02-28T07:22:08;1.40;99.90
33699;DHT22;20032;52.436;13.312;2023-02-28T07:24:34;1.40;99.90
33699;DHT22;20032;52.436;13.312;2023-02-28T07:27:00;1.50;99.90
33699;DHT22;20032;52.436;13.312;2023-02-28T07:29:26;1.60;99.90
33699;DHT22;20032;52.436;13.312;2023-02-28T07:31:53;1.70;99.90
33699;DHT22;20032;52.436;13.312;2023-02-28T07:34:20;1.70;99.90
33699;DHT22;20032;52.436;13.312;2023-02-28T07:36:45;1.80;99.90
33699;DHT22;20032;52.436;13.312;2023-02-28T07:39:11;1.90;99.90
33699;DHT22;20032;52.436;13.312;2023-02-28T07:41:36;2.00;99.90
33699;DHT22;20032;52.436;13.312;2023-02-28T07:44:09;2.10;99.90
33699;DHT22;20032;52.436;13.312;2023-02-28T07:46:35;2.20;99.90
33699;DHT22;20032;52.436;13.312;2023-02-28T07:49:01;2.30;99.90
33699;DHT22;20032;52.436;13.312;2023-02-28T07:51:28;2.40;99.90
33699;DHT22;20032;52.436;13.312;2023-02-28T07:53:54;2.60;99.90
33699;DHT22;20032;52.436;13.312;2023-02-28T07:56:19;2.60;99.90
33699;DHT22;20032;52.436;13.312;2023-02-28T07:58:45;2.70;99.90
33699;DHT22;20032;52.436;13.312;2023-02-28T08:01:11;2.80;99.90
33699;DHT22;20032;52.436;13.312;2023-02-28T08:03:37;2.90;99.90
33699;DHT22;20032;52.436;13.312;2023-02-28T08:06:05;3.10;99.90
33699;DHT22;20032;52.436;13.312;2023-02-28T08:08:31;3.20;99.90
33699;DHT22;20032;52.436;13.312;2023-02-28T08:10:59;3.20;99.90
33699;DHT22;20032;52.436;13.312;2023-02-28T08:13:26;3.30;99.90
33699;DHT22;20032;52.436;13.312;2023-02-28T08:15:52;3.40;99.90
33699;DHT22;20032;52.436;13.312;2023-02-28T08:18:19;3.50;99.90
33699;DHT22;20032;52.436;13.312;2023-02-28T08:20:44;3.50;99.90
33699;DHT22;20032;52.436;13.312;2023-02-28T08:23:10;3.60;99.90
33699;DHT22;20032;52.436;13.312;2023-02-28T08:25:35;3.70;99.90
33699;DHT22;20032;52.436;13.312;2023-02-28T08:28:01;3.90;99.90
33699;DHT22;20032;52.436;13.312;2023-02-28T08:30:26;4.00;99.90
33699;DHT22;20032;52.436;13.312;2023-02-28T08:32:52;4.00;99.90
33699;DHT22;20032;52.436;13.312;2023-02-28T08:35:18;4.10;99.90
33699;DHT22;20032;52.436;13.312;2023-02-28T08:37:44;4.20;99.90
33699;DHT22;20032;52.436;13.312;2023-02-28T08:40:10;4.30;99.90
33699;DHT22;20032;52.436;13.312;2023-02-28T08:42:38;4.40;99.90
33699;DHT22;20032;52.436;13.312;2023-02-28T08:45:04;4.50;99.90
33699;DHT22;20032;52.436;13.312;2023-02-28T08:47:29;4.60;99.90
33699;DHT22;20032;52.436;13.312;2023-02-28T08:49:55;4.60;99.90
33699;DHT22;20032;52.436;13.312;2023-02-28T08:52:20;4.70;99.90
33699;DHT22;20032;52.436;13.312;2023-02-28T08:54:46;4.80;99.90
33699;DHT22;20032;52.436;13.312;2023-02-28T08:57:12;4.90;99.90
33699;DHT22;20032;52.436;13.312;2023-02-28T08:59:37;4.80;99.90
33699;DHT22;20032;52.436;13.312;2023-02-28T09:02:03;4.60;99.90
33699;DHT22;20032;52.436;13.312;2023-02-28T09:04:29;4.50;99.90
33699;DHT22;20032;52.436;13.312;2023-02-28T09:06:56;4.50;99.90
33699;DHT22;20032;52.436;13.312;2023-02-28T09:09:21;4.60;99.90
33699;DHT22;20032;52.436;13.312;2023-02-28T09:11:48;4.70;99.90
33699;DHT22;20032;52.436;13.312;2023-02-28T09:14:13;4.90;99.90
33699;DHT22;20032;52.436;13.312;2023-02-28T09:16:39;5.10;99.90
33699;DHT22;20032;52.436;13.312;2023-02-28T09:19:04;5.30;99.90
33699;DHT22;20032;52.436;13.312;2023-02-28T09:21:31;5.30;99.90
33699;DHT22;20032;52.436;13.312;2023-02-28T09:23:56;5.30;99.90
33699;DHT22;20032;52.436;13.312;2023-02-28T09:26:24;5.30;99.90
33699;DHT22;20032;52.436;13.312;2023-02-28T09:28:51;5.50;99.90
33699;DHT22;20032;52.436;13.312;2023-02-28T09:31:20;5.60;99.90
33699;DHT22;20032;52.436;13.312;2023-02-28T09:33:49;5.60;99.90
33699;DHT22;20032;52.436;13.312;2023-02-28T09:36:14;5.60;99.70
33699;DHT22;20032;52.436;13.312;2023-02-28T09:38:40;5.60;99.90
33699;DHT22;20032;52.436;13.312;2023-02-28T09:41:17;5.70;99.90
33699;DHT22;20032;52.436;13.312;2023-02-28T09:43:49;5.70;99.90
33699;DHT22;20032;52.436;13.312;2023-02-28T09:46:28;5.90;99.90
33699;DHT22;20032;52.436;13.312;2023-02-28T09:48:55;5.80;99.40
33699;DHT22;20032;52.436;13.312;2023-02-28T09:54:14;6.00;99.70
33699;DHT22;20032;52.436;13.312;2023-02-28T09:56:45;6.20;99.80
33699;DHT22;20032;52.436;13.312;2023-02-28T10:00:21;6.50;98.80
33699;DHT22;20032;52.436;13.312;2023-02-28T10:02:32;6.60;99.30
33699;DHT22;20032;52.436;13.312;2023-02-28T10:05:11;6.70;97.90
33699;DHT22;20032;52.436;13.312;2023-02-28T10:08:05;7.00;97.70
33699;DHT22;20032;52.436;13.312;2023-02-28T10:10:43;6.90;98.10
33699;DHT22;20032;52.436;13.312;2023-02-28T10:13:36;6.70;97.70
33699;DHT22;20032;52.436;13.312;2023-02-28T10:16:09;6.90;97.30
33699;DHT22;20032;52.436;13.312;2023-02-28T10:18:59;7.00;99.80
33699;DHT22;20032;52.436;13.312;2023-02-28T10:21:31;7.10;97.30
33699;DHT22;20032;52.436;13.312;2023-02-28T10:24:03;7.20;97.20
33699;DHT22;20032;52.436;13.312;2023-02-28T10:26:31;7.40;97.10
33699;DHT22;20032;52.436;13.312;2023-02-28T10:28:57;7.40;96.00
33699;DHT22;20032;52.436;13.312;2023-02-28T10:31:23;7.50;97.20
33699;DHT22;20032;52.436;13.312;2023-02-28T10:33:48;7.70;96.50
33699;DHT22;20032;52.436;13.312;2023-02-28T10:36:17;7.80;95.90
33699;DHT22;20032;52.436;13.312;2023-02-28T10:38:45;7.70;95.50
33699;DHT22;20032;52.436;13.312;2023-02-28T10:41:13;7.70;96.20
33699;DHT22;20032;52.436;13.312;2023-02-28T10:43:41;7.60;95.30
33699;DHT22;20032;52.436;13.312;2023-02-28T10:48:38;7.40;95.70
33699;DHT22;20032;52.436;13.312;2023-02-28T10:51:07;7.30;95.60
33699;DHT22;20032;52.436;13.312;2023-02-28T10:53:35;7.20;95.00
33699;DHT22;20032;52.436;13.312;2023-02-28T11:01:44;7.20;95.10
33699;DHT22;20032;52.436;13.312;2023-02-28T11:07:04;7.30;95.20
33699;DHT22;20032;52.436;13.312;2023-02-28T11:09:35;7.20;94.90
33699;DHT22;20032;52.436;13.312;2023-02-28T11:12:02;7.40;95.60
33699;DHT22;20032;52.436;13.312;2023-02-28T11:14:32;7.90;95.30
33699;DHT22;20032;52.436;13.312;2023-02-28T11:17:13;8.00;95.40
33699;DHT22;20032;52.436;13.312;2023-02-28T11:19:45;8.10;94.20
33699;DHT22;20032;52.436;13.312;2023-02-28T11:22:20;8.20;95.30
33699;DHT22;20032;52.436;13.312;2023-02-28T11:24:50;8.40;93.90
33699;DHT22;20032;52.436;13.312;2023-02-28T11:27:26;8.40;94.60
33699;DHT22;20032;52.436;13.312;2023-02-28T11:32:49;8.30;93.00
33699;DHT22;20032;52.436;13.312;2023-02-28T11:35:24;8.40;93.50
33699;DHT22;20032;52.436;13.312;2023-02-28T11:37:52;8.90;92.30
33699;DHT22;20032;52.436;13.312;2023-02-28T11:40:24;8.90;92.40
33699;DHT22;20032;52.436;13.312;2023-02-28T11:43:06;9.00;92.20
33699;DHT22;20032;52.436;13.312;2023-02-28T11:46:02;9.00;92.40
33699;DHT22;20032;52.436;13.312;2023-02-28T11:48:40;8.80;91.20
33699;DHT22;20032;52.436;13.312;2023-02-28T11:51:21;8.70;92.70
33699;DHT22;20032;52.436;13.312;2023-02-28T11:57:03;9.50;91.80
33699;DHT22;20032;52.436;13.312;2023-02-28T11:59:51;9.60;91.00
33699;DHT22;20032;52.436;13.312;2023-02-28T12:02:26;10.00;90.30
33699;DHT22;20032;52.436;13.312;2023-02-28T12:10:28;10.40;90.20
33699;DHT22;20032;52.436;13.312;2023-02-28T12:13:07;10.60;87.70
33699;DHT22;20032;52.436;13.312;2023-02-28T12:19:19;11.00;87.10
33699;DHT22;20032;52.436;13.312;2023-02-28T12:21:15;11.20;85.90
33699;DHT22;20032;52.436;13.312;2023-02-28T12:24:07;11.30;85.50
33699;DHT22;20032;52.436;13.312;2023-02-28T12:26:43;11.50;84.50
33699;DHT22;20032;52.436;13.312;2023-02-28T12:29:17;11.70;83.90
33699;DHT22;20032;52.436;13.312;2023-02-28T12:31:54;11.40;81.90
33699;DHT22;20032;52.436;13.312;2023-02-28T12:34:27;11.20;82.90
33699;DHT22;20032;52.436;13.312;2023-02-28T12:36:55;11.90;81.10
33699;DHT22;20032;52.436;13.312;2023-02-28T12:39:25;12.30;78.70
33699;DHT22;20032;52.436;13.312;2023-02-28T12:41:56;12.30;77.00
33699;DHT22;20032;52.436;13.312;2023-02-28T12:47:02;11.70;81.30
33699;DHT22;20032;52.436;13.312;2023-02-28T12:49:36;11.90;79.70
33699;DHT22;20032;52.436;13.312;2023-02-28T12:52:03;12.10;79.10
33699;DHT22;20032;52.436;13.312;2023-02-28T12:54:49;12.20;79.00
33699;DHT22;20032;52.436;13.312;2023-02-28T12:58:27;12.70;78.90
33699;DHT22;20032;52.436;13.312;2023-02-28T13:00:17;13.20;77.20
33699;DHT22;20032;52.436;13.312;2023-02-28T13:09:24;13.40;72.90
33699;DHT22;20032;52.436;13.312;2023-02-28T13:11:32;12.80;73.60
33699;DHT22;20032;52.436;13.312;2023-02-28T13:14:02;12.70;77.20
33699;DHT22;20032;52.436;13.312;2023-02-28T13:16:50;12.80;73.40
33699;DHT22;20032;52.436;13.312;2023-02-28T13:19:18;12.60;73.80
33699;DHT22;20032;52.436;13.312;2023-02-28T13:21:45;12.30;76.30
33699;DHT22;20032;52.436;13.312;2023-02-28T13:24:11;12.40;76.70
33699;DHT22;20032;52.436;13.312;2023-02-28T13:29:32;12.00;74.50
33699;DHT22;20032;52.436;13.312;2023-02-28T13:34:38;11.80;78.30
33699;DHT22;20032;52.436;13.312;2023-02-28T13:39:53;11.30;77.90
33699;DHT22;20032;52.436;13.312;2023-02-28T13:47:41;10.70;80.00
33699;DHT22;20032;52.436;13.312;2023-02-28T13:50:29;10.80;80.00
33699;DHT22;20032;52.436;13.312;2023-02-28T13:53:59;10.70;79.40
33699;DHT22;20032;52.436;13.312;2023-02-28T13:56:50;10.90;77.40
33699;DHT22;20032;52.436;13.312;2023-02-28T14:04:14;10.40;78.50
33699;DHT22;20032;52.436;13.312;2023-02-28T14:06:51;10.60;79.50
33699;DHT22;20032;52.436;13.312;2023-02-28T14:09:31;10.80;79.00
33699;DHT22;20032;52.436;13.312;2023-02-28T14:13:50;10.50;79.00
33699;DHT22;20032;52.436;13.312;2023-02-28T14:15:25;10.30;80.40
33699;DHT22;20032;52.436;13.312;2023-02-28T14:17:52;10.10;83.60
33699;DHT22;20032;52.436;13.312;2023-02-28T14:20:20;10.10;81.30
33699;DHT22;20032;52.436;13.312;2023-02-28T14:23:08;10.30;80.10
33699;DHT22;20032;52.436;13.312;2023-02-28T14:25:45;10.00;80.50
33699;DHT22;20032;52.436;13.312;2023-02-28T14:32:02;9.30;83.50
33699;DHT22;20032;52.436;13.312;2023-02-28T14:34:20;9.00;82.90
33699;DHT22;20032;52.436;13.312;2023-02-28T14:36:50;9.00;84.40
33699;DHT22;20032;52.436;13.312;2023-02-28T14:39:22;9.00;83.20
33699;DHT22;20032;52.436;13.312;2023-02-28T14:41:49;8.70;83.20
33699;DHT22;20032;52.436;13.312;2023-02-28T14:44:20;8.60;85.20
33699;DHT22;20032;52.436;13.312;2023-02-28T14:46:50;8.70;84.20
33699;DHT22;20032;52.436;13.312;2023-02-28T14:49:19;9.20;84.40
33699;DHT22;20032;52.436;13.312;2023-02-28T14:51:45;9.70;81.60
33699;DHT22;20032;52.436;13.312;2023-02-28T14:54:15;9.90;80.60
33699;DHT22;20032;52.436;13.312;2023-02-28T14:56:41;9.60;83.50
33699;DHT22;20032;52.436;13.312;2023-02-28T14:59:25;9.40;83.50
33699;DHT22;20032;52.436;13.312;2023-02-28T15:01:51;9.20;82.90
33699;DHT22;20032;52.436;13.312;2023-02-28T15:04:26;8.90;84.70
33699;DHT22;20032;52.436;13.312;2023-02-28T15:07:09;8.50;84.70
33699;DHT22;20032;52.436;13.312;2023-02-28T15:09:35;8.20;86.10
33699;DHT22;20032;52.436;13.312;2023-02-28T15:12:01;8.20;86.70
33699;DHT22;20032;52.436;13.312;2023-02-28T15:14:27;8.30;86.00
33699;DHT22;20032;52.436;13.312;2023-02-28T15:16:58;8.30;86.20
33699;DHT22;20032;52.436;13.312;2023-02-28T15:22:00;8.30;88.30
33699;DHT22;20032;52.436;13.312;2023-02-28T15:24:45;8.90;86.80
33699;DHT22;20032;52.436;13.312;2023-02-28T15:27:15;9.50;85.00
33699;DHT22;20032;52.436;13.312;2023-02-28T15:29:46;9.30;83.70
33699;DHT22;20032;52.436;13.312;2023-02-28T15:32:33;9.70;85.30
33699;DHT22;20032;52.436;13.312;2023-02-28T15:35:17;10.40;80.10
33699;DHT22;20032;52.436;13.312;2023-02-28T15:38:12;10.40;80.00
33699;DHT22;20032;52.436;13.312;2023-02-28T15:40:43;9.40;81.40
33699;DHT22;20032;52.436;13.312;2023-02-28T15:43:14;8.60;85.10
33699;DHT22;20032;52.436;13.312;2023-02-28T15:45:45;8.30;86.80
33699;DHT22;20032;52.436;13.312;2023-02-28T15:48:19;8.10;87.30
33699;DHT22;20032;52.436;13.312;2023-02-28T15:50:49;8.00;88.80
33699;DHT22;20032;52.436;13.312;2023-02-28T15:53:18;7.80;88.30
33699;DHT22;20032;52.436;13.312;2023-02-28T15:55:44;7.90;88.90
33699;DHT22;20032;52.436;13.312;2023-02-28T15:58:11;7.90;88.20
33699;DHT22;20032;52.436;13.312;2023-02-28T16:00:38;8.00;88.40
33699;DHT22;20032;52.436;13.312;2023-02-28T16:03:25;8.00;88.30
33699;DHT22;20032;52.436;13.312;2023-02-28T16:06:23;7.50;90.20
33699;DHT22;20032;52.436;13.312;2023-02-28T16:08:50;7.20;90.90
33699;DHT22;20032;52.436;13.312;2023-02-28T16:11:16;7.20;90.40
33699;DHT22;20032;52.436;13.312;2023-02-28T16:13:42;7.10;90.50
33699;DHT22;20032;52.436;13.312;2023-02-28T16:16:07;7.10;91.10
33699;DHT22;20032;52.436;13.312;2023-02-28T16:18:33;7.10;91.90
33699;DHT22;20032;52.436;13.312;2023-02-28T16:20:58;7.00;91.50
33699;DHT22;20032;52.436;13.312;2023-02-28T16:23:24;6.80;91.20
33699;DHT22;20032;52.436;13.312;2023-02-28T16:25:49;6.70;91.40
33699;DHT22;20032;52.436;13.312;2023-02-28T16:28:23;6.60;91.50
33699;DHT22;20032;52.436;13.312;2023-02-28T16:30:51;6.50;91.50
33699;DHT22;20032;52.436;13.312;2023-02-28T16:33:17;6.40;91.80
33699;DHT22;20032;52.436;13.312;2023-02-28T16:35:43;6.40;92.10
33699;DHT22;20032;52.436;13.312;2023-02-28T16:38:08;6.50;92.20
33699;DHT22;20032;52.436;13.312;2023-02-28T16:40:35;6.40;92.80
33699;DHT22;20032;52.436;13.312;2023-02-28T16:43:05;6.40;93.00
33699;DHT22;20032;52.436;13.312;2023-02-28T16:45:32;6.40;92.80
33699;DHT22;20032;52.436;13.312;2023-02-28T16:47:57;6.20;94.30
33699;DHT22;20032;52.436;13.312;2023-02-28T16:50:25;6.20;93.80
33699;DHT22;20032;52.436;13.312;2023-02-28T16:52:51;6.10;94.20
33699;DHT22;20032;52.436;13.312;2023-02-28T16:55:19;6.10;94.10
33699;DHT22;20032;52.436;13.312;2023-02-28T16:57:48;6.00;94.10
33699;DHT22;20032;52.436;13.312;2023-02-28T17:00:16;5.90;94.60